createdAt,value
2018-07-16T00:01:05.041Z,0
2018-07-16T00:02:13.905Z,0
2018-07-16T00:03:22.768Z,0
2018-07-16T00:04:31.628Z,0
2018-07-16T00:05:40.490Z,0
2018-07-16T00:06:49.351Z,0
2018-07-16T00:07:58.211Z,0
2018-07-16T00:09:07.075Z,0
2018-07-16T00:10:15.938Z,0
2018-07-16T00:11:24.949Z,0
2018-07-16T00:12:33.817Z,0
2018-07-16T00:13:42.680Z,0
2018-07-16T00:14:51.541Z,0
2018-07-16T00:16:00.402Z,0
2018-07-16T00:17:09.269Z,0
2018-07-16T00:18:18.131Z,0
2018-07-16T00:19:26.991Z,0
2018-07-16T00:20:35.854Z,0
2018-07-16T00:21:44.717Z,0
2018-07-16T00:22:53.677Z,0
2018-07-16T00:24:02.544Z,0
2018-07-16T00:25:11.957Z,0
2018-07-16T00:26:20.819Z,0
2018-07-16T00:27:29.684Z,0
2018-07-16T00:28:38.644Z,0
2018-07-16T00:29:47.507Z,0
2018-07-16T00:30:56.374Z,0
2018-07-16T00:32:05.234Z,0
2018-07-16T00:33:14.375Z,0
2018-07-16T00:34:23.385Z,0
2018-07-16T00:35:32.525Z,0
2018-07-16T00:36:41.387Z,0
2018-07-16T00:37:50.527Z,0
2018-07-16T00:38:59.386Z,0
2018-07-16T00:40:08.686Z,0
2018-07-16T00:41:17.548Z,0
2018-07-16T00:42:26.409Z,0
2018-07-16T00:43:35.547Z,0
2018-07-16T00:44:44.410Z,0
2018-07-16T00:45:53.622Z,0
2018-07-16T00:47:02.759Z,0
2018-07-16T00:48:12.454Z,0
2018-07-16T00:49:21.313Z,0
2018-07-16T00:50:30.177Z,0
2018-07-16T00:51:39.037Z,0
2018-07-16T00:52:47.900Z,0
2018-07-16T00:53:57.035Z,0
2018-07-16T00:55:05.895Z,0
2018-07-16T00:56:14.755Z,0
2018-07-16T00:57:24.039Z,0
2018-07-16T00:58:32.898Z,0
2018-07-16T00:59:42.037Z,0
2018-07-16T01:00:50.893Z,0
2018-07-16T01:02:00.036Z,0
2018-07-16T01:03:09.606Z,0
2018-07-16T01:04:18.467Z,0
2018-07-16T01:05:27.603Z,0
2018-07-16T01:06:36.753Z,0
2018-07-16T01:07:45.614Z,0
2018-07-16T01:08:54.573Z,0
2018-07-16T01:10:03.436Z,0
2018-07-16T01:11:12.302Z,0
2018-07-16T01:12:21.157Z,0
2018-07-16T01:13:30.017Z,0
2018-07-16T01:14:38.875Z,0
2018-07-16T01:15:47.736Z,0
2018-07-16T01:16:56.600Z,0
2018-07-16T01:18:05.466Z,0
2018-07-16T01:19:14.329Z,0
2018-07-16T01:20:23.287Z,0
2018-07-16T01:21:32.148Z,0
2018-07-16T01:22:41.008Z,0
2018-07-16T01:23:49.868Z,0
2018-07-16T01:24:58.732Z,0
2018-07-16T01:26:07.868Z,0
2018-07-16T01:27:16.729Z,0
2018-07-16T01:28:25.598Z,0
2018-07-16T01:29:34.460Z,0
2018-07-16T01:30:43.598Z,0
2018-07-16T01:31:52.457Z,0
2018-07-16T01:33:01.315Z,0
2018-07-16T01:34:10.457Z,0
2018-07-16T01:35:19.316Z,0
2018-07-16T01:36:28.178Z,0
2018-07-16T01:37:37.190Z,0
2018-07-16T01:38:46.055Z,0
2018-07-16T01:39:54.913Z,0
2018-07-16T01:41:03.772Z,0
2018-07-16T01:42:12.635Z,0
2018-07-16T01:43:21.650Z,0
2018-07-16T01:44:30.505Z,0
2018-07-16T01:45:39.365Z,0
2018-07-16T01:46:48.508Z,0
2018-07-16T01:47:57.369Z,0
2018-07-16T01:49:06.380Z,0
2018-07-16T01:50:15.238Z,0
2018-07-16T01:51:24.098Z,0
2018-07-16T01:52:32.962Z,0
2018-07-16T01:53:42.099Z,0
2018-07-16T01:54:51.120Z,0
2018-07-16T01:55:59.926Z,0
2018-07-16T01:57:09.066Z,0
2018-07-16T01:58:17.927Z,0
2018-07-16T01:59:26.787Z,0
2018-07-16T02:00:35.805Z,0
2018-07-16T02:01:44.667Z,0
2018-07-16T02:02:53.531Z,0
2018-07-16T02:04:02.388Z,0
2018-07-16T02:05:11.249Z,0
2018-07-16T02:06:20.110Z,0
2018-07-16T02:07:28.972Z,0
2018-07-16T02:08:37.835Z,0
2018-07-16T02:09:46.970Z,0
2018-07-16T02:10:55.832Z,0
2018-07-16T02:12:04.847Z,0
2018-07-16T02:13:13.706Z,0
2018-07-16T02:14:22.568Z,0
2018-07-16T02:15:31.430Z,0
2018-07-16T02:16:40.289Z,0
2018-07-16T02:17:49.502Z,0
2018-07-16T02:18:58.641Z,0
2018-07-16T02:20:07.501Z,0
2018-07-16T02:21:16.648Z,0
2018-07-16T02:22:25.783Z,0
2018-07-16T02:23:34.798Z,0
2018-07-16T02:24:43.656Z,0
2018-07-16T02:25:52.515Z,0
2018-07-16T02:27:01.376Z,0
2018-07-16T02:28:10.241Z,0
2018-07-16T02:29:19.447Z,0
2018-07-16T02:30:28.867Z,0
2018-07-16T02:31:37.730Z,0
2018-07-16T02:32:46.590Z,0
2018-07-16T02:33:55.729Z,0
2018-07-16T02:35:05.226Z,0
2018-07-16T02:36:14.092Z,0
2018-07-16T02:37:23.231Z,0
2018-07-16T02:38:32.094Z,0
2018-07-16T02:39:41.504Z,0
2018-07-16T02:40:50.544Z,0
2018-07-16T02:41:59.387Z,0
2018-07-16T02:43:08.529Z,0
2018-07-16T02:44:17.943Z,0
2018-07-16T02:45:27.361Z,0
2018-07-16T02:46:36.375Z,0
2018-07-16T02:47:45.235Z,0
2018-07-16T02:48:54.372Z,0
2018-07-16T02:50:03.793Z,0
2018-07-16T02:51:13.492Z,0
2018-07-16T02:52:22.630Z,0
2018-07-16T02:53:32.044Z,0
2018-07-16T02:54:40.903Z,0
2018-07-16T02:55:50.331Z,0
2018-07-16T02:56:59.745Z,0
2018-07-16T02:58:09.160Z,0
2018-07-16T02:59:18.311Z,0
2018-07-16T03:00:27.463Z,0
2018-07-16T03:01:36.602Z,0
2018-07-16T03:02:45.740Z,0
2018-07-16T03:03:54.753Z,0
2018-07-16T03:05:03.620Z,0
2018-07-16T03:06:12.827Z,0
2018-07-16T03:07:21.622Z,0
2018-07-16T03:08:30.488Z,0
2018-07-16T03:09:40.056Z,0
2018-07-16T03:10:49.498Z,5
2018-07-16T03:11:59.212Z,5
2018-07-16T03:13:08.359Z,5
2018-07-16T03:14:17.780Z,5
2018-07-16T03:15:27.496Z,5
2018-07-16T03:16:36.640Z,5
2018-07-16T03:17:45.498Z,5
2018-07-16T03:18:55.028Z,5
2018-07-16T03:20:04.718Z,10
2018-07-16T03:21:14.209Z,10
2018-07-16T03:22:23.070Z,10
2018-07-16T03:23:31.935Z,10
2018-07-16T03:24:40.795Z,10
2018-07-16T03:25:50.217Z,15
2018-07-16T03:26:59.229Z,15
2018-07-16T03:28:08.369Z,15
2018-07-16T03:29:17.790Z,15
2018-07-16T03:30:27.485Z,15
2018-07-16T03:31:37.180Z,20
2018-07-16T03:32:46.418Z,20
2018-07-16T03:33:55.278Z,20
2018-07-16T03:35:04.975Z,20
2018-07-16T03:36:13.833Z,25
2018-07-16T03:37:22.697Z,25
2018-07-16T03:38:31.933Z,25
2018-07-16T03:39:40.794Z,25
2018-07-16T03:40:49.931Z,30
2018-07-16T03:41:58.792Z,30
2018-07-16T03:43:07.653Z,30
2018-07-16T03:44:16.867Z,35
2018-07-16T03:45:25.724Z,35
2018-07-16T03:46:34.581Z,35
2018-07-16T03:47:43.442Z,40
2018-07-16T03:48:52.302Z,40
2018-07-16T03:50:01.437Z,40
2018-07-16T03:51:10.591Z,40
2018-07-16T03:52:19.452Z,45
2018-07-16T03:53:28.314Z,45
2018-07-16T03:54:37.557Z,45
2018-07-16T03:55:46.459Z,50
2018-07-16T03:56:55.279Z,50
2018-07-16T03:58:04.140Z,50
2018-07-16T03:59:13.004Z,55
2018-07-16T04:00:21.868Z,55
2018-07-16T04:01:30.757Z,55
2018-07-16T04:02:39.590Z,60
2018-07-16T04:03:48.451Z,60
2018-07-16T04:04:57.310Z,60
2018-07-16T04:06:06.452Z,60
2018-07-16T04:07:15.312Z,65
2018-07-16T04:08:24.451Z,65
2018-07-16T04:09:33.312Z,65
2018-07-16T04:10:42.452Z,65
2018-07-16T04:11:51.313Z,70
2018-07-16T04:13:00.533Z,70
2018-07-16T04:14:09.668Z,70
2018-07-16T04:15:18.528Z,75
2018-07-16T04:16:27.389Z,75
2018-07-16T04:17:36.252Z,75
2018-07-16T04:18:45.263Z,75
2018-07-16T04:19:54.123Z,80
2018-07-16T04:21:02.982Z,80
2018-07-16T04:22:11.843Z,80
2018-07-16T04:23:20.715Z,80
2018-07-16T04:24:29.565Z,85
2018-07-16T04:25:38.426Z,85
2018-07-16T04:26:47.285Z,85
2018-07-16T04:27:56.146Z,85
2018-07-16T04:29:05.015Z,90
2018-07-16T04:30:14.302Z,90
2018-07-16T04:31:23.162Z,90
2018-07-16T04:32:32.026Z,90
2018-07-16T04:33:40.889Z,95
2018-07-16T04:34:50.025Z,95
2018-07-16T04:35:59.239Z,95
2018-07-16T04:37:08.665Z,95
2018-07-16T04:38:17.809Z,100
2018-07-16T04:39:26.950Z,100
2018-07-16T04:40:36.088Z,100
2018-07-16T04:41:44.950Z,100
2018-07-16T04:42:53.810Z,100
2018-07-16T04:44:02.671Z,100
2018-07-16T04:45:11.533Z,100
2018-07-16T04:46:20.393Z,100
2018-07-16T04:47:29.255Z,100
2018-07-16T04:48:38.114Z,105
2018-07-16T04:49:46.975Z,105
2018-07-16T04:50:55.835Z,105
2018-07-16T04:52:04.699Z,105
2018-07-16T04:53:13.834Z,105
2018-07-16T04:54:22.694Z,110
2018-07-16T04:55:31.849Z,110
2018-07-16T04:56:40.710Z,110
2018-07-16T04:57:49.577Z,110
2018-07-16T04:58:58.432Z,110
2018-07-16T05:00:07.300Z,115
2018-07-16T05:01:16.159Z,115
2018-07-16T05:02:25.078Z,115
2018-07-16T05:03:34.220Z,115
2018-07-16T05:04:43.083Z,115
2018-07-16T05:05:51.947Z,115
2018-07-16T05:07:00.806Z,115
2018-07-16T05:08:09.668Z,115
2018-07-16T05:09:18.530Z,120
2018-07-16T05:10:27.390Z,120
2018-07-16T05:11:36.252Z,120
2018-07-16T05:12:45.117Z,120
2018-07-16T05:13:53.975Z,120
2018-07-16T05:15:02.841Z,120
2018-07-16T05:16:11.703Z,120
2018-07-16T05:17:20.564Z,125
2018-07-16T05:18:29.569Z,125
2018-07-16T05:19:38.289Z,125
2018-07-16T05:20:47.153Z,125
2018-07-16T05:21:56.014Z,125
2018-07-16T05:23:04.875Z,125
2018-07-16T05:24:14.181Z,130
2018-07-16T05:25:23.043Z,130
2018-07-16T05:26:31.903Z,130
2018-07-16T05:27:40.914Z,130
2018-07-16T05:28:49.778Z,130
2018-07-16T05:29:58.640Z,130
2018-07-16T05:31:07.776Z,130
2018-07-16T05:32:16.764Z,130
2018-07-16T05:33:25.500Z,130
2018-07-16T05:34:34.362Z,130
2018-07-16T05:35:43.225Z,135
2018-07-16T05:36:52.088Z,135
2018-07-16T05:38:01.292Z,135
2018-07-16T05:39:10.518Z,135
2018-07-16T05:40:19.383Z,135
2018-07-16T05:41:28.520Z,135
2018-07-16T05:42:37.381Z,135
2018-07-16T05:43:46.241Z,135
2018-07-16T05:44:55.104Z,135
2018-07-16T05:46:03.964Z,135
2018-07-16T05:47:12.824Z,140
2018-07-16T05:48:21.685Z,140
2018-07-16T05:49:30.823Z,145
2018-07-16T05:50:39.686Z,140
2018-07-16T05:51:48.548Z,140
2018-07-16T05:52:57.413Z,140
2018-07-16T05:54:06.274Z,140
2018-07-16T05:55:15.420Z,140
2018-07-16T05:56:24.716Z,140
2018-07-16T05:57:33.578Z,140
2018-07-16T05:58:42.997Z,140
2018-07-16T05:59:52.134Z,140
2018-07-16T06:01:00.992Z,145
2018-07-16T06:02:09.853Z,145
2018-07-16T06:03:18.714Z,145
2018-07-16T06:04:27.576Z,145
2018-07-16T06:05:36.439Z,145
2018-07-16T06:06:45.301Z,145
2018-07-16T06:07:54.514Z,145
2018-07-16T06:09:03.380Z,145
2018-07-16T06:10:12.516Z,145
2018-07-16T06:11:21.376Z,145
2018-07-16T06:12:30.241Z,145
2018-07-16T06:13:39.253Z,145
2018-07-16T06:14:48.116Z,145
2018-07-16T06:15:57.260Z,145
2018-07-16T06:17:06.128Z,150
2018-07-16T06:18:14.991Z,150
2018-07-16T06:19:24.388Z,150
2018-07-16T06:20:33.182Z,150
2018-07-16T06:21:42.047Z,150
2018-07-16T06:22:50.909Z,150
2018-07-16T06:24:00.133Z,150
2018-07-16T06:25:09.062Z,150
2018-07-16T06:26:18.205Z,150
2018-07-16T06:27:27.068Z,150
2018-07-16T06:28:35.934Z,150
2018-07-16T06:29:44.796Z,150
2018-07-16T06:30:54.008Z,155
2018-07-16T06:32:03.147Z,155
2018-07-16T06:33:12.006Z,155
2018-07-16T06:34:21.148Z,155
2018-07-16T06:35:30.014Z,155
2018-07-16T06:36:39.429Z,155
2018-07-16T06:37:48.290Z,155
2018-07-16T06:38:57.151Z,155
2018-07-16T06:40:06.486Z,155
2018-07-16T06:41:16.108Z,155
2018-07-16T06:42:24.602Z,155
2018-07-16T06:43:33.464Z,155
2018-07-16T06:44:42.327Z,160
2018-07-16T06:45:51.190Z,160
2018-07-16T06:47:00.336Z,160
2018-07-16T06:48:09.202Z,160
2018-07-16T06:49:18.064Z,160
2018-07-16T06:50:26.927Z,160
2018-07-16T06:51:35.791Z,160
2018-07-16T06:52:44.659Z,160
2018-07-16T06:53:53.869Z,160
2018-07-16T06:55:02.743Z,160
2018-07-16T06:56:12.171Z,160
2018-07-16T06:57:21.036Z,160
2018-07-16T06:58:29.902Z,160
2018-07-16T06:59:38.918Z,160
2018-07-16T07:00:47.779Z,165
2018-07-16T07:01:56.920Z,160
2018-07-16T07:03:05.781Z,160
2018-07-16T07:04:14.926Z,160
2018-07-16T07:05:23.784Z,160
2018-07-16T07:06:32.652Z,155
2018-07-16T07:07:41.515Z,160
2018-07-16T07:08:50.373Z,160
2018-07-16T07:09:59.282Z,160
2018-07-16T07:11:08.702Z,160
2018-07-16T07:12:17.844Z,160
2018-07-16T07:13:26.708Z,160
2018-07-16T07:14:35.852Z,160
2018-07-16T07:15:44.718Z,160
2018-07-16T07:16:53.934Z,160
2018-07-16T07:18:03.099Z,160
2018-07-16T07:19:11.942Z,160
2018-07-16T07:20:20.807Z,160
2018-07-16T07:21:29.945Z,160
2018-07-16T07:22:38.807Z,160
2018-07-16T07:23:47.674Z,160
2018-07-16T07:24:56.536Z,160
2018-07-16T07:26:05.400Z,165
2018-07-16T07:27:14.265Z,165
2018-07-16T07:28:23.278Z,165
2018-07-16T07:29:32.147Z,165
2018-07-16T07:30:41.009Z,165
2018-07-16T07:31:49.873Z,165
2018-07-16T07:32:58.737Z,165
2018-07-16T07:34:07.602Z,165
2018-07-16T07:35:16.966Z,165
2018-07-16T07:36:26.767Z,165
2018-07-16T07:37:35.632Z,165
2018-07-16T07:38:44.498Z,165
2018-07-16T07:39:53.713Z,165
2018-07-16T07:41:02.574Z,165
2018-07-16T07:42:11.437Z,165
2018-07-16T07:43:20.299Z,165
2018-07-16T07:44:29.442Z,165
2018-07-16T07:45:38.455Z,165
2018-07-16T07:46:47.322Z,170
2018-07-16T07:47:56.189Z,170
2018-07-16T07:49:05.050Z,170
2018-07-16T07:50:14.193Z,170
2018-07-16T07:51:23.332Z,170
2018-07-16T07:52:32.198Z,170
2018-07-16T07:53:41.063Z,170
2018-07-16T07:54:50.634Z,170
2018-07-16T07:55:59.326Z,170
2018-07-16T07:57:08.892Z,170
2018-07-16T07:58:17.796Z,170
2018-07-16T07:59:26.934Z,170
2018-07-16T08:00:35.848Z,170
2018-07-16T08:01:44.712Z,170
2018-07-16T08:02:53.573Z,175
2018-07-16T08:04:02.443Z,175
2018-07-16T08:05:11.305Z,175
2018-07-16T08:06:20.177Z,175
2018-07-16T08:07:29.323Z,175
2018-07-16T08:08:38.473Z,175
2018-07-16T08:09:47.336Z,175
2018-07-16T08:10:56.485Z,180
2018-07-16T08:12:05.351Z,175
2018-07-16T08:13:14.217Z,175
2018-07-16T08:14:23.756Z,175
2018-07-16T08:15:32.608Z,175
2018-07-16T08:16:41.474Z,175
2018-07-16T08:17:50.338Z,180
2018-07-16T08:18:59.202Z,180
2018-07-16T08:20:08.070Z,180
2018-07-16T08:21:17.392Z,180
2018-07-16T08:22:26.548Z,175
2018-07-16T08:23:35.413Z,175
2018-07-16T08:24:44.572Z,175
2018-07-16T08:25:53.868Z,175
2018-07-16T08:27:02.730Z,175
2018-07-16T08:28:12.058Z,175
2018-07-16T08:29:21.568Z,175
2018-07-16T08:30:30.725Z,175
2018-07-16T08:31:39.873Z,175
2018-07-16T08:32:49.023Z,175
2018-07-16T08:33:57.888Z,175
2018-07-16T08:35:07.036Z,175
2018-07-16T08:36:15.899Z,175
2018-07-16T08:37:24.864Z,180
2018-07-16T08:38:34.031Z,180
2018-07-16T08:39:43.184Z,180
2018-07-16T08:40:52.048Z,180
2018-07-16T08:42:00.913Z,180
2018-07-16T08:43:09.878Z,180
2018-07-16T08:44:18.742Z,180
2018-07-16T08:45:27.606Z,180
2018-07-16T08:46:36.474Z,185
2018-07-16T08:47:45.895Z,180
2018-07-16T08:48:54.765Z,180
2018-07-16T08:50:03.629Z,180
2018-07-16T08:51:12.494Z,180
2018-07-16T08:52:21.649Z,185
2018-07-16T08:53:30.519Z,185
2018-07-16T08:54:40.011Z,185
2018-07-16T08:55:49.156Z,185
2018-07-16T08:56:58.299Z,190
2018-07-16T08:58:07.452Z,190
2018-07-16T08:59:16.725Z,190
2018-07-16T09:00:25.661Z,195
2018-07-16T09:01:34.526Z,195
2018-07-16T09:02:43.393Z,200
2018-07-16T09:03:52.262Z,205
2018-07-16T09:05:01.128Z,205
2018-07-16T09:06:09.992Z,205
2018-07-16T09:07:18.855Z,210
2018-07-16T09:08:27.729Z,195
2018-07-16T09:09:36.592Z,205
2018-07-16T09:10:45.459Z,205
2018-07-16T09:11:54.473Z,200
2018-07-16T09:13:03.341Z,200
2018-07-16T09:14:12.484Z,200
2018-07-16T09:15:21.348Z,200
2018-07-16T09:16:30.213Z,195
2018-07-16T09:17:39.428Z,200
2018-07-16T09:18:48.573Z,220
2018-07-16T09:19:57.715Z,235
2018-07-16T09:21:06.585Z,225
2018-07-16T09:22:15.450Z,220
2018-07-16T09:23:24.467Z,215
2018-07-16T09:24:33.338Z,210
2018-07-16T09:25:42.205Z,210
2018-07-16T09:26:51.072Z,215
2018-07-16T09:27:59.938Z,185
2018-07-16T09:29:08.907Z,200
2018-07-16T09:30:17.773Z,210
2018-07-16T09:31:27.204Z,230
2018-07-16T09:32:36.116Z,225
2018-07-16T09:33:44.924Z,215
2018-07-16T09:34:53.891Z,210
2018-07-16T09:36:03.038Z,215
2018-07-16T09:37:12.189Z,240
2018-07-16T09:38:21.331Z,235
2018-07-16T09:39:30.196Z,225
2018-07-16T09:40:39.417Z,225
2018-07-16T09:41:48.276Z,225
2018-07-16T09:42:57.140Z,245
2018-07-16T09:44:06.010Z,235
2018-07-16T09:45:14.874Z,230
2018-07-16T09:46:24.092Z,225
2018-07-16T09:47:33.237Z,245
2018-07-16T09:48:42.103Z,270
2018-07-16T09:49:50.972Z,255
2018-07-16T09:51:00.120Z,235
2018-07-16T09:52:09.413Z,225
2018-07-16T09:53:18.559Z,225
2018-07-16T09:54:27.702Z,225
2018-07-16T09:55:36.845Z,230
2018-07-16T09:56:45.987Z,240
2018-07-16T09:57:55.003Z,265
2018-07-16T09:59:03.869Z,270
2018-07-16T10:00:12.733Z,230
2018-07-16T10:01:21.600Z,240
2018-07-16T10:02:30.468Z,240
2018-07-16T10:03:39.614Z,255
2018-07-16T10:04:48.481Z,260
2018-07-16T10:05:57.348Z,280
2018-07-16T10:07:06.216Z,295
2018-07-16T10:08:15.083Z,315
2018-07-16T10:09:24.324Z,310
2018-07-16T10:10:33.191Z,295
2018-07-16T10:11:42.056Z,280
2018-07-16T10:12:50.922Z,280
2018-07-16T10:13:59.796Z,265
2018-07-16T10:15:09.288Z,255
2018-07-16T10:16:18.154Z,265
2018-07-16T10:17:27.023Z,290
2018-07-16T10:18:35.886Z,300
2018-07-16T10:19:44.755Z,300
2018-07-16T10:20:53.898Z,295
2018-07-16T10:22:03.040Z,290
2018-07-16T10:23:11.908Z,285
2018-07-16T10:24:21.048Z,300
2018-07-16T10:25:29.913Z,295
2018-07-16T10:26:38.927Z,325
2018-07-16T10:27:47.794Z,360
2018-07-16T10:28:56.661Z,350
2018-07-16T10:30:05.804Z,360
2018-07-16T10:31:14.671Z,315
2018-07-16T10:32:23.689Z,310
2018-07-16T10:33:32.556Z,310
2018-07-16T10:34:41.422Z,320
2018-07-16T10:35:50.293Z,275
2018-07-16T10:36:59.167Z,280
2018-07-16T10:38:08.133Z,320
2018-07-16T10:39:17.280Z,335
2018-07-16T10:40:26.142Z,400
2018-07-16T10:41:35.289Z,475
2018-07-16T10:42:44.156Z,495
2018-07-16T10:43:53.451Z,445
2018-07-16T10:45:02.318Z,395
2018-07-16T10:46:11.184Z,390
2018-07-16T10:47:20.050Z,400
2018-07-16T10:48:28.919Z,395
2018-07-16T10:49:37.794Z,395
2018-07-16T10:50:46.649Z,380
2018-07-16T10:51:55.517Z,360
2018-07-16T10:53:04.389Z,355
2018-07-16T10:54:13.809Z,360
2018-07-16T10:55:22.718Z,365
2018-07-16T10:56:31.541Z,395
2018-07-16T10:57:40.682Z,450
2018-07-16T10:58:49.822Z,490
2018-07-16T10:59:58.966Z,505
2018-07-16T11:01:07.834Z,515
2018-07-16T11:02:17.044Z,505
2018-07-16T11:03:25.914Z,495
2018-07-16T11:04:35.056Z,475
2018-07-16T11:05:43.928Z,480
2018-07-16T11:06:52.791Z,475
2018-07-16T11:08:01.658Z,450
2018-07-16T11:09:10.537Z,505
2018-07-16T11:10:19.683Z,420
2018-07-16T11:11:28.829Z,395
2018-07-16T11:12:38.070Z,415
2018-07-16T11:13:46.936Z,515
2018-07-16T11:14:56.110Z,565
2018-07-16T11:16:05.267Z,505
2018-07-16T11:17:14.132Z,425
2018-07-16T11:18:23.100Z,380
2018-07-16T11:19:32.267Z,355
2018-07-16T11:20:41.134Z,350
2018-07-16T11:21:50.005Z,340
2018-07-16T11:22:58.868Z,425
2018-07-16T11:24:07.885Z,465
2018-07-16T11:25:16.754Z,470
2018-07-16T11:26:25.898Z,500
2018-07-16T11:27:34.767Z,565
2018-07-16T11:28:43.636Z,600
2018-07-16T11:29:52.785Z,635
2018-07-16T11:31:01.651Z,615
2018-07-16T11:32:10.797Z,640
2018-07-16T11:33:19.665Z,630
2018-07-16T11:34:28.532Z,610
2018-07-16T11:35:37.467Z,590
2018-07-16T11:36:46.549Z,535
2018-07-16T11:37:55.416Z,490
2018-07-16T11:39:04.563Z,450
2018-07-16T11:40:13.707Z,435
2018-07-16T11:41:22.680Z,425
2018-07-16T11:42:31.550Z,465
2018-07-16T11:43:40.417Z,480
2018-07-16T11:44:49.335Z,520
2018-07-16T11:45:58.203Z,555
2018-07-16T11:47:07.503Z,570
2018-07-16T11:48:16.372Z,565
2018-07-16T11:49:25.524Z,555
2018-07-16T11:50:34.669Z,555
2018-07-16T11:51:44.142Z,585
2018-07-16T11:52:53.561Z,595
2018-07-16T11:54:02.429Z,615
2018-07-16T11:55:11.297Z,745
2018-07-16T11:56:20.168Z,665
2018-07-16T11:57:29.310Z,590
2018-07-16T11:58:38.179Z,560
2018-07-16T11:59:47.047Z,800
2018-07-16T12:00:56.192Z,2360
2018-07-16T12:02:05.494Z,515
2018-07-16T12:03:14.362Z,3005
2018-07-16T12:04:23.283Z,3535
2018-07-16T12:05:32.153Z,3315
2018-07-16T12:06:41.024Z,3345
2018-07-16T12:07:49.894Z,3470
2018-07-16T12:08:58.763Z,3325
2018-07-16T12:10:08.059Z,3420
2018-07-16T12:11:16.934Z,3500
2018-07-16T12:12:26.263Z,3425
2018-07-16T12:13:35.719Z,3415
2018-07-16T12:14:44.592Z,3380
2018-07-16T12:15:53.891Z,3325
2018-07-16T12:17:02.765Z,3500
2018-07-16T12:18:11.636Z,3490
2018-07-16T12:19:20.506Z,3570
2018-07-16T12:20:29.745Z,3490
2018-07-16T12:21:38.575Z,3405
2018-07-16T12:22:47.996Z,3470
2018-07-16T12:23:56.872Z,3295
2018-07-16T12:25:06.029Z,3390
2018-07-16T12:26:15.472Z,3855
2018-07-16T12:27:24.346Z,3540
2018-07-16T12:28:33.499Z,3705
2018-07-16T12:29:42.374Z,3520
2018-07-16T12:30:51.253Z,3510
2018-07-16T12:32:00.128Z,3680
2018-07-16T12:33:09.634Z,3345
2018-07-16T12:34:18.784Z,3695
2018-07-16T12:35:27.662Z,3775
2018-07-16T12:36:36.812Z,3775
2018-07-16T12:37:45.965Z,3880
2018-07-16T12:38:54.992Z,3720
2018-07-16T12:40:03.869Z,3915
2018-07-16T12:41:13.027Z,4225
2018-07-16T12:42:21.902Z,1970
2018-07-16T12:43:30.781Z,840
2018-07-16T12:44:39.758Z,680
2018-07-16T12:45:48.640Z,2440
2018-07-16T12:46:58.152Z,3765
2018-07-16T12:48:07.787Z,3395
2018-07-16T12:49:16.583Z,3625
2018-07-16T12:50:25.789Z,3600
2018-07-16T12:51:34.666Z,3740
2018-07-16T12:52:43.540Z,3620
2018-07-16T12:53:52.420Z,3605
2018-07-16T12:55:01.580Z,3575
2018-07-16T12:56:10.886Z,3735
2018-07-16T12:57:19.769Z,3600
2018-07-16T12:58:28.644Z,3535
2018-07-16T12:59:38.151Z,3510
2018-07-16T13:00:47.032Z,3405
2018-07-16T13:01:56.185Z,3630
2018-07-16T13:03:05.065Z,3440
2018-07-16T13:04:14.217Z,3605
2018-07-16T13:05:23.094Z,3760
2018-07-16T13:06:31.972Z,3635
2018-07-16T13:07:40.854Z,3685
2018-07-16T13:08:49.734Z,3560
2018-07-16T13:09:58.890Z,3625
2018-07-16T13:11:08.044Z,3945
2018-07-16T13:12:16.927Z,3875
2018-07-16T13:13:26.157Z,3590
2018-07-16T13:14:35.035Z,3510
2018-07-16T13:15:43.914Z,3310
2018-07-16T13:16:52.795Z,4020
2018-07-16T13:18:01.679Z,3985
2018-07-16T13:19:10.557Z,3775
2018-07-16T13:20:19.437Z,3770
2018-07-16T13:21:28.318Z,865
2018-07-16T13:22:37.201Z,3720
2018-07-16T13:23:46.357Z,905
2018-07-16T13:24:55.237Z,3805
2018-07-16T13:26:04.115Z,3810
2018-07-16T13:27:12.997Z,3855
2018-07-16T13:28:22.154Z,1140
2018-07-16T13:29:31.035Z,3865
2018-07-16T13:30:40.265Z,3945
2018-07-16T13:31:49.146Z,3040
2018-07-16T13:32:58.027Z,3885
2018-07-16T13:34:06.904Z,3930
2018-07-16T13:35:15.783Z,4115
2018-07-16T13:36:24.815Z,4035
2018-07-16T13:37:33.698Z,4030
2018-07-16T13:38:43.137Z,3880
2018-07-16T13:39:52.019Z,4020
2018-07-16T13:41:01.178Z,3835
2018-07-16T13:42:10.409Z,3840
2018-07-16T13:43:19.586Z,3945
2018-07-16T13:44:28.741Z,3935
2018-07-16T13:45:37.625Z,3360
2018-07-16T13:46:46.584Z,3040
2018-07-16T13:47:55.540Z,4010
2018-07-16T13:49:04.714Z,3865
2018-07-16T13:50:13.584Z,3735
2018-07-16T13:51:22.742Z,3755
2018-07-16T13:52:31.629Z,4090
2018-07-16T13:53:40.786Z,4000
2018-07-16T13:54:49.668Z,4015
2018-07-16T13:55:58.548Z,3935
2018-07-16T13:57:07.850Z,3640
2018-07-16T13:58:17.007Z,3715
2018-07-16T13:59:25.890Z,3755
2018-07-16T14:00:34.777Z,3780
2018-07-16T14:01:44.028Z,3960
2018-07-16T14:02:53.197Z,4050
2018-07-16T14:04:02.082Z,3845
2018-07-16T14:05:11.316Z,3800
2018-07-16T14:06:20.752Z,3710
2018-07-16T14:07:29.635Z,3770
2018-07-16T14:08:38.795Z,3850
2018-07-16T14:09:47.680Z,3660
2018-07-16T14:10:56.564Z,3805
2018-07-16T14:12:05.448Z,3765
2018-07-16T14:13:14.333Z,3720
2018-07-16T14:14:23.213Z,3500
2018-07-16T14:15:32.095Z,3845
2018-07-16T14:16:41.356Z,3755
2018-07-16T14:17:50.236Z,3145
2018-07-16T14:18:59.119Z,3225
2018-07-16T14:20:08.010Z,1175
2018-07-16T14:21:17.169Z,645
2018-07-16T14:22:26.050Z,580
2018-07-16T14:23:35.343Z,585
2018-07-16T14:24:44.156Z,900
2018-07-16T14:25:53.317Z,3785
2018-07-16T14:27:02.478Z,3715
2018-07-16T14:28:11.643Z,1730
2018-07-16T14:29:20.522Z,2940
2018-07-16T14:30:29.403Z,4070
2018-07-16T14:31:38.558Z,3915
2018-07-16T14:32:47.436Z,3865
2018-07-16T14:33:56.420Z,3575
2018-07-16T14:35:05.301Z,3780
2018-07-16T14:36:14.757Z,3715
2018-07-16T14:37:24.474Z,3720
2018-07-16T14:38:33.356Z,3705
2018-07-16T14:39:42.596Z,3635
2018-07-16T14:40:51.827Z,3850
2018-07-16T14:42:00.710Z,3665
2018-07-16T14:43:09.589Z,3730
2018-07-16T14:44:18.469Z,3690
2018-07-16T14:45:27.729Z,3575
2018-07-16T14:46:36.614Z,3705
2018-07-16T14:47:45.885Z,3505
2018-07-16T14:48:55.046Z,3475
2018-07-16T14:50:03.930Z,3635
2018-07-16T14:51:13.441Z,3765
2018-07-16T14:52:22.324Z,3555
2018-07-16T14:53:31.205Z,3460
2018-07-16T14:54:40.086Z,3590
2018-07-16T14:55:48.965Z,3705
2018-07-16T14:56:58.376Z,3685
2018-07-16T14:58:07.545Z,3615
2018-07-16T14:59:16.426Z,3635
2018-07-16T15:00:25.306Z,3660
2018-07-16T15:01:34.467Z,3655
2018-07-16T15:02:43.910Z,3340
2018-07-16T15:03:52.791Z,3500
2018-07-16T15:05:01.674Z,3595
2018-07-16T15:06:11.114Z,3370
2018-07-16T15:07:20.279Z,3540
2018-07-16T15:08:29.485Z,3495
2018-07-16T15:09:38.640Z,3505
2018-07-16T15:10:47.524Z,2100
2018-07-16T15:11:56.681Z,3220
2018-07-16T15:13:05.578Z,3450
2018-07-16T15:14:14.597Z,3105
2018-07-16T15:15:23.480Z,3065
2018-07-16T15:16:32.364Z,3220
2018-07-16T15:17:41.245Z,3280
2018-07-16T15:18:50.131Z,3345
2018-07-16T15:19:59.213Z,3425
2018-07-16T15:21:09.755Z,3395
2018-07-16T15:22:19.339Z,3340
2018-07-16T15:23:28.223Z,3165
2018-07-16T15:24:37.104Z,2980
2018-07-16T15:25:46.088Z,3165
2018-07-16T15:26:55.250Z,3040
2018-07-16T15:28:04.138Z,1640
2018-07-16T15:29:13.026Z,925
2018-07-16T15:30:21.901Z,810
2018-07-16T15:31:30.784Z,1500
2018-07-16T15:32:39.667Z,2980
2018-07-16T15:33:48.829Z,2975
2018-07-16T15:34:57.714Z,3005
2018-07-16T15:36:07.144Z,3035
2018-07-16T15:37:16.305Z,2880
2018-07-16T15:38:25.474Z,2910
2018-07-16T15:39:34.912Z,2760
2018-07-16T15:40:43.793Z,2680
2018-07-16T15:41:52.677Z,2710
2018-07-16T15:43:01.986Z,2810
2018-07-16T15:44:10.868Z,2825
2018-07-16T15:45:19.749Z,2775
2018-07-16T15:46:28.633Z,2890
2018-07-16T15:47:37.515Z,2810
2018-07-16T15:48:46.453Z,2675
2018-07-16T15:49:55.601Z,2690
2018-07-16T15:51:04.762Z,2570
2018-07-16T15:52:13.642Z,2635
2018-07-16T15:53:22.798Z,2715
2018-07-16T15:54:32.032Z,2725
2018-07-16T15:55:40.915Z,2800
2018-07-16T15:56:49.805Z,2735
2018-07-16T15:57:58.686Z,2675
2018-07-16T15:59:07.567Z,2725